Time;durP1;ratioP1;P1;durP2;ratioP2;P2;SDS_P1;SDS_P2;PMS_P1;PMS_P2;Temp;Humidity;BMP_temperature;BMP_pressure;BME280_temperature;BME280_humidity;BME280_pressure;Samples;Min_cycle;Max_cycle;Signal;HPM_P1;HPM_P2
2023/02/14 00:00:07;;;;;;;14.97;13.20;;;5.30;79.90;;;;;;5119306;27;20308;-42
2023/02/14 00:02:33;;;;;;;15.20;13.37;;;5.30;97.90;;;;;;5118680;28;20367;-41
2023/02/14 00:04:58;;;;;;;15.57;13.90;;;5.30;99.90;;;;;;5118948;27;20455;-43
2023/02/14 00:07:24;;;;;;;16.40;14.70;;;5.30;99.90;;;;;;5118968;28;20266;-42
2023/02/14 00:09:50;;;;;;;16.60;13.97;;;5.30;99.90;;;;;;5117666;28;20203;-42
2023/02/14 00:12:15;;;;;;;16.27;13.53;;;5.20;99.90;;;;;;5118343;28;20319;-42
2023/02/14 00:17:25;;;;;;;18.20;14.57;;;5.20;99.90;;;;;;5119234;28;20187;-39
2023/02/14 00:19:50;;;;;;;16.80;14.87;;;5.20;99.90;;;;;;5118927;28;20513;-40
2023/02/14 00:22:16;;;;;;;17.13;15.33;;;5.20;99.90;;;;;;5119659;28;20184;-39
2023/02/14 00:24:42;;;;;;;17.40;15.60;;;5.20;99.90;;;;;;5118985;28;20239;-40
2023/02/14 00:27:08;;;;;;;16.07;14.37;;;5.10;99.90;;;;;;5118434;28;20187;-40
2023/02/14 00:29:33;;;;;;;16.00;14.30;;;5.10;99.90;;;;;;5118557;28;20217;-42
2023/02/14 00:31:59;;;;;;;19.40;14.17;;;5.10;99.90;;;;;;5119132;28;20184;-40
2023/02/14 00:34:26;;;;;;;16.30;13.90;;;5.10;99.90;;;;;;5118693;28;20421;-41
2023/02/14 00:36:51;;;;;;;17.20;14.90;;;5.00;99.90;;;;;;5119234;28;20520;-41
2023/02/14 00:39:18;;;;;;;18.47;15.50;;;5.00;99.90;;;;;;5118556;28;20596;-41
2023/02/14 00:41:44;;;;;;;16.63;14.53;;;5.00;99.90;;;;;;5118598;28;20184;-41
2023/02/14 00:44:10;;;;;;;18.57;16.60;;;5.00;99.90;;;;;;5117081;28;20424;-40
2023/02/14 00:46:36;;;;;;;17.73;14.63;;;5.00;99.90;;;;;;5117924;28;20582;-41
2023/02/14 00:49:02;;;;;;;21.30;16.00;;;5.00;99.90;;;;;;5117235;28;20863;-40
2023/02/14 00:51:28;;;;;;;18.20;16.03;;;4.90;1.00;;;;;;5117372;28;20402;-41
2023/02/14 00:53:54;;;;;;;17.47;15.50;;;4.90;1.00;;;;;;5117396;28;20203;-40
2023/02/14 00:56:20;;;;;;;19.37;16.80;;;4.90;1.00;;;;;;5118403;28;20437;-41
2023/02/14 00:58:46;;;;;;;17.47;15.57;;;4.90;1.00;;;;;;5118842;28;20200;-40
2023/02/14 01:01:13;;;;;;;20.70;16.67;;;4.90;1.00;;;;;;5118939;28;20578;-41
2023/02/14 01:03:38;;;;;;;23.17;18.37;;;4.90;1.00;;;;;;5118040;28;20528;-40
2023/02/14 01:06:04;;;;;;;20.47;17.60;;;4.90;1.00;;;;;;5118511;28;20434;-42
2023/02/14 01:08:30;;;;;;;20.07;16.93;;;4.80;1.00;;;;;;5118495;28;20569;-40
2023/02/14 01:10:56;;;;;;;20.90;17.33;;;4.80;1.00;;;;;;5118523;28;20401;-40
2023/02/14 01:13:22;;;;;;;19.33;16.67;;;4.80;1.00;;;;;;5118422;28;20236;-41
2023/02/14 01:15:49;;;;;;;22.60;18.30;;;4.70;1.00;;;;;;5118531;28;21190;-43
2023/02/14 01:18:16;;;;;;;20.93;16.90;;;4.70;1.00;;;;;;5119012;28;20245;-40
2023/02/14 01:20:42;;;;;;;18.90;16.57;;;4.70;1.00;;;;;;5118959;28;20409;-41
2023/02/14 01:23:08;;;;;;;19.43;16.30;;;4.70;1.00;;;;;;5118726;28;20784;-40
2023/02/14 01:25:36;;;;;;;21.80;16.60;;;4.60;1.00;;;;;;5118275;28;20497;-42
2023/02/14 01:28:02;;;;;;;19.60;16.40;;;4.60;1.00;;;;;;5117260;28;20441;-41
2023/02/14 01:30:28;;;;;;;19.10;16.37;;;4.60;1.00;;;;;;5117569;28;20405;-40
2023/02/14 01:32:53;;;;;;;23.37;17.70;;;4.60;1.00;;;;;;5118225;28;20433;-42
2023/02/14 01:35:19;;;;;;;18.73;15.97;;;4.50;1.00;;;;;;5118449;28;20168;-41
2023/02/14 01:37:45;;;;;;;20.40;15.47;;;4.50;1.00;;;;;;5118207;28;20466;-40
2023/02/14 01:40:12;;;;;;;18.70;16.07;;;4.50;1.00;;;;;;5117938;28;20183;-40
2023/02/14 01:42:37;;;;;;;20.17;17.97;;;4.50;1.00;;;;;;5118100;28;20183;-43
2023/02/14 01:45:08;;;;;;;18.50;16.13;;;4.40;1.00;;;;;;5117949;28;20401;-41
2023/02/14 01:47:38;;;;;;;20.87;17.00;;;4.40;1.00;;;;;;5117041;28;20475;-40
2023/02/14 01:50:16;;;;;;;18.80;16.70;;;4.40;1.00;;;;;;5118074;28;20514;-42
2023/02/14 01:52:48;;;;;;;18.97;16.43;;;4.40;1.00;;;;;;5117816;28;20417;-41
2023/02/14 01:55:20;;;;;;;21.67;17.80;;;4.30;1.00;;;;;;5116730;28;20430;-41
2023/02/14 01:57:51;;;;;;;19.33;15.97;;;4.30;1.00;;;;;;5114606;28;20430;-40
2023/02/14 02:03:03;;;;;;;17.90;14.77;;;4.30;1.00;;;;;;5117167;28;20718;-39
2023/02/14 02:05:29;;;;;;;17.67;14.53;;;4.20;1.00;;;;;;5115150;28;20509;-40
2023/02/14 02:07:57;;;;;;;18.00;15.73;;;4.20;1.00;;;;;;5117083;28;20528;-40
2023/02/14 02:10:23;;;;;;;16.50;14.70;;;4.20;1.00;;;;;;5115559;28;20195;-41
2023/02/14 02:12:50;;;;;;;15.53;13.93;;;4.20;1.00;;;;;;5117051;28;20426;-40
2023/02/14 02:15:16;;;;;;;16.83;14.27;;;4.20;1.00;;;;;;5115560;28;20471;-40
2023/02/14 02:17:45;;;;;;;17.00;12.73;;;4.20;1.00;;;;;;5116614;28;20422;-42
2023/02/14 02:20:38;;;;;;;16.20;14.47;;;4.20;1.00;;;;;;5116128;28;20253;-40
2023/02/14 02:23:25;;;;;;;15.23;13.50;;;4.10;1.00;;;;;;5115748;28;20433;-41
2023/02/14 02:26:26;;;;;;;15.03;13.27;;;4.10;1.00;;;;;;5116770;28;20493;-38
2023/02/14 02:29:22;;;;;;;15.57;13.87;;;4.10;1.00;;;;;;5116540;28;20460;-42
2023/02/14 02:32:33;;;;;;;14.47;12.97;;;4.10;1.00;;;;;;5116526;28;20442;-40
2023/02/14 02:35:05;;;;;;;16.13;13.60;;;4.10;1.00;;;;;;5053121;28;20425;-40
2023/02/14 02:37:46;;;;;;;15.30;13.67;;;4.10;1.00;;;;;;5116621;28;20452;-40
2023/02/14 02:40:24;;;;;;;15.33;13.70;;;4.00;1.00;;;;;;5115835;28;20783;-41
2023/02/14 02:43:00;;;;;;;15.33;13.83;;;4.00;1.00;;;;;;5115313;28;20749;-40
2023/02/14 02:46:46;;;;;;;13.40;11.80;;;4.00;1.00;;;;;;5115173;28;20413;-41
2023/02/14 02:48:36;;;;;;;13.23;11.77;;;4.00;1.00;;;;;;5114494;28;20758;-39
2023/02/14 02:53:55;;;;;;;15.40;12.63;;;3.90;1.00;;;;;;5115990;28;20412;-40
2023/02/14 02:56:48;;;;;;;14.50;13.00;;;3.90;1.00;;;;;;5115422;28;20508;-39
2023/02/14 02:59:30;;;;;;;17.50;15.40;;;3.90;1.00;;;;;;5115545;28;20398;-41
2023/02/14 03:02:10;;;;;;;17.47;15.13;;;3.90;6.00;;;;;;5114865;28;20794;-40
2023/02/14 03:04:53;;;;;;;18.57;16.30;;;3.90;29.70;;;;;;5114934;28;20414;-40
2023/02/14 03:07:33;;;;;;;18.60;16.03;;;3.90;62.70;;;;;;5113751;28;20452;-41
2023/02/14 03:10:20;;;;;;;18.87;15.10;;;3.90;99.90;;;;;;5113958;28;20465;-40
2023/02/14 03:13:23;;;;;;;18.53;16.37;;;3.90;99.90;;;;;;5114869;28;20437;-41
2023/02/14 03:15:55;;;;;;;19.03;16.30;;;3.90;99.90;;;;;;5116127;28;20423;-40
2023/02/14 03:18:47;;;;;;;20.90;16.90;;;3.90;99.90;;;;;;5116342;28;20453;-39
2023/02/14 03:21:25;;;;;;;20.03;17.37;;;3.90;99.90;;;;;;5115634;28;20517;-40
2023/02/14 03:23:59;;;;;;;18.63;15.20;;;3.90;99.90;;;;;;5115164;28;20489;-40
2023/02/14 03:27:09;;;;;;;20.27;17.20;;;3.90;99.90;;;;;;5115910;28;20412;-41
2023/02/14 03:29:38;;;;;;;22.00;19.13;;;3.90;99.90;;;;;;5053354;28;20479;-39
2023/02/14 03:32:08;;;;;;;20.77;17.77;;;3.90;99.90;;;;;;5055790;28;20505;-41
2023/02/14 03:35:09;;;;;;;20.37;16.50;;;3.90;99.90;;;;;;5089158;28;20521;-40
2023/02/14 03:37:48;;;;;;;20.90;17.37;;;3.80;99.90;;;;;;5057009;28;20495;-39
2023/02/14 03:40:29;;;;;;;24.13;19.43;;;3.80;99.90;;;;;;5112568;28;20481;-39
2023/02/14 03:43:00;;;;;;;22.07;17.90;;;3.80;99.90;;;;;;5118857;28;20767;-39
2023/02/14 03:45:33;;;;;;;21.53;19.07;;;3.80;99.90;;;;;;5119793;28;20424;-40
2023/02/14 03:48:05;;;;;;;20.40;17.10;;;3.80;99.90;;;;;;5119561;28;20528;-41
2023/02/14 03:50:32;;;;;;;21.63;18.33;;;3.80;99.90;;;;;;5118951;28;20421;-41
2023/02/14 03:52:58;;;;;;;21.57;19.27;;;3.80;99.90;;;;;;5118574;28;20422;-40
2023/02/14 03:55:30;;;;;;;21.83;18.57;;;3.80;99.90;;;;;;5119353;28;20477;-39
2023/02/14 03:58:26;;;;;;;20.23;17.33;;;3.70;99.90;;;;;;5118472;28;20414;-42
2023/02/14 04:01:00;;;;;;;19.60;16.53;;;3.70;99.90;;;;;;5115011;28;20767;-39
2023/02/14 04:03:27;;;;;;;21.17;18.43;;;3.70;99.90;;;;;;5117882;28;20424;-40
2023/02/14 04:05:53;;;;;;;21.30;18.23;;;3.70;99.90;;;;;;5117733;28;20457;-39
2023/02/14 04:08:24;;;;;;;21.90;18.20;;;3.60;99.90;;;;;;5118081;28;20888;-39
2023/02/14 04:10:50;;;;;;;20.67;17.60;;;3.60;99.90;;;;;;5118721;28;20168;-41
2023/02/14 04:13:16;;;;;;;21.60;18.23;;;3.60;99.90;;;;;;5115072;28;20510;-40
2023/02/14 04:15:42;;;;;;;21.47;17.63;;;3.60;99.90;;;;;;5117090;28;20816;-40
2023/02/14 04:20:56;;;;;;;22.17;17.97;;;3.50;55.10;;;;;;5097583;28;20199;-42
2023/02/14 04:23:22;;;;;;;19.37;16.20;;;3.50;14.80;;;;;;5116690;28;20464;-41
2023/02/14 04:25:48;;;;;;;19.73;17.50;;;3.40;1.00;;;;;;5115510;28;20231;-39
2023/02/14 04:28:13;;;;;;;21.43;17.97;;;3.40;1.00;;;;;;5115187;28;20198;-40
2023/02/14 04:30:39;;;;;;;20.27;17.10;;;3.40;1.00;;;;;;5115896;28;20195;-41
2023/02/14 04:33:06;;;;;;;22.37;18.13;;;3.40;1.00;;;;;;5113857;28;20215;-40
2023/02/14 04:35:33;;;;;;;19.83;16.40;;;3.40;1.00;;;;;;5114462;28;20472;-39
2023/02/14 04:38:00;;;;;;;19.20;16.60;;;3.30;1.00;;;;;;5115044;28;20501;-41
2023/02/14 04:40:26;;;;;;;20.80;16.87;;;3.30;1.00;;;;;;5115649;28;20782;-40
2023/02/14 04:42:51;;;;;;;20.33;17.20;;;3.30;1.00;;;;;;5115335;28;20497;-42
2023/02/14 04:45:17;;;;;;;19.00;15.80;;;3.20;1.00;;;;;;5114824;28;20255;-39
2023/02/14 04:47:43;;;;;;;20.87;17.03;;;3.20;1.00;;;;;;5114342;28;20198;-42
2023/02/14 04:50:09;;;;;;;19.13;15.83;;;3.20;1.00;;;;;;5113694;28;20290;-41
2023/02/14 04:52:34;;;;;;;17.80;15.47;;;3.20;1.00;;;;;;5116371;28;20191;-39
2023/02/14 04:55:00;;;;;;;19.17;15.87;;;3.20;1.00;;;;;;5115775;28;20409;-40
2023/02/14 04:57:26;;;;;;;16.87;14.67;;;3.10;1.00;;;;;;5114849;28;20184;-40
2023/02/14 04:59:51;;;;;;;19.13;16.50;;;3.10;1.00;;;;;;5114656;28;20278;-41
2023/02/14 05:02:17;;;;;;;17.27;15.00;;;3.10;1.00;;;;;;5116222;28;20350;-42
2023/02/14 05:04:43;;;;;;;18.17;15.40;;;3.00;1.00;;;;;;5115719;28;20206;-39
2023/02/14 05:07:08;;;;;;;16.00;14.30;;;3.00;1.00;;;;;;5113932;28;20203;-40
2023/02/14 05:09:34;;;;;;;16.37;14.17;;;3.00;1.00;;;;;;5113015;28;20257;-42
2023/02/14 05:12:00;;;;;;;17.23;15.33;;;3.00;1.00;;;;;;5114474;28;20785;-40
2023/02/14 05:14:26;;;;;;;19.27;15.00;;;2.90;1.00;;;;;;5112950;28;20203;-41
2023/02/14 05:16:51;;;;;;;19.70;14.83;;;2.90;1.00;;;;;;5114629;28;20176;-40
2023/02/14 05:19:17;;;;;;;16.57;14.43;;;2.90;1.00;;;;;;5114366;28;20175;-39
2023/02/14 05:21:43;;;;;;;17.43;14.30;;;2.90;1.00;;;;;;5112290;28;20176;-40
2023/02/14 05:24:08;;;;;;;18.03;15.00;;;2.90;1.00;;;;;;5113337;28;20238;-41
2023/02/14 05:26:34;;;;;;;17.63;14.80;;;2.80;1.00;;;;;;5112637;28;20232;-39
2023/02/14 05:28:59;;;;;;;18.77;14.80;;;2.80;1.00;;;;;;5112797;28;20227;-39
2023/02/14 05:31:25;;;;;;;18.67;14.97;;;2.80;1.00;;;;;;5112802;28;20164;-41
2023/02/14 05:33:51;;;;;;;17.33;14.20;;;2.80;1.00;;;;;;5112230;28;20167;-40
2023/02/14 05:36:16;;;;;;;18.70;15.57;;;2.80;1.00;;;;;;5111782;28;20255;-39
2023/02/14 05:38:42;;;;;;;19.60;15.20;;;2.80;1.00;;;;;;5112763;28;20172;-40
2023/02/14 05:41:08;;;;;;;18.53;14.80;;;2.80;1.00;;;;;;5113500;28;20601;-42
2023/02/14 05:43:33;;;;;;;19.80;16.80;;;2.80;1.00;;;;;;5113041;28;20259;-41
2023/02/14 05:45:59;;;;;;;20.93;15.80;;;2.80;17.50;;;;;;5112512;28;20638;-41
2023/02/14 05:48:24;;;;;;;17.07;15.27;;;2.80;21.40;;;;;;5111355;28;20275;-41
2023/02/14 05:50:50;;;;;;;19.00;16.17;;;2.80;34.20;;;;;;5112213;28;20246;-41
2023/02/14 05:53:16;;;;;;;20.93;17.67;;;2.80;48.20;;;;;;5113585;28;20577;-39
2023/02/14 05:55:42;;;;;;;20.43;16.03;;;2.80;50.00;;;;;;5113300;28;20164;-42
2023/02/14 05:58:07;;;;;;;19.70;15.60;;;2.80;44.70;;;;;;5113033;28;20532;-41
2023/02/14 06:00:33;;;;;;;20.40;16.33;;;2.80;45.60;;;;;;5112093;28;20427;-40
2023/02/14 06:02:59;;;;;;;18.93;15.07;;;2.80;43.20;;;;;;5107397;28;20186;-43
2023/02/14 06:05:25;;;;;;;18.30;15.07;;;2.80;41.20;;;;;;5108447;28;20286;-42
2023/02/14 06:07:52;;;;;;;18.20;15.23;;;2.80;45.00;;;;;;5109116;28;20464;-41
2023/02/14 06:10:19;;;;;;;19.30;15.93;;;2.80;51.40;;;;;;5108282;28;20457;-41
2023/02/14 06:12:45;;;;;;;19.73;15.90;;;2.80;66.40;;;;;;5108318;28;20445;-42
2023/02/14 06:15:11;;;;;;;19.90;15.90;;;2.80;94.00;;;;;;5109024;28;20676;-41
2023/02/14 06:17:37;;;;;;;17.43;14.43;;;2.80;99.90;;;;;;5109083;28;20437;-42
2023/02/14 06:20:03;;;;;;;20.33;15.90;;;2.80;99.90;;;;;;5108622;28;20660;-41
2023/02/14 06:22:29;;;;;;;19.63;14.60;;;2.80;99.90;;;;;;5106971;28;20453;-42
2023/02/14 06:24:54;;;;;;;18.83;15.90;;;2.80;99.50;;;;;;5109076;28;20641;-40
2023/02/14 06:27:20;;;;;;;18.40;15.77;;;2.70;88.70;;;;;;5111778;28;20176;-43
2023/02/14 06:29:46;;;;;;;21.60;16.03;;;2.70;52.00;;;;;;5110681;28;20230;-41
2023/02/14 06:32:11;;;;;;;18.23;15.23;;;2.70;43.80;;;;;;5113639;28;20188;-42
2023/02/14 06:34:39;;;;;;;19.10;16.30;;;2.70;41.80;;;;;;5094467;28;20598;-41
2023/02/14 06:37:06;;;;;;;19.40;15.70;;;2.70;73.20;;;;;;5088055;28;20706;-40
2023/02/14 06:39:32;;;;;;;20.43;16.80;;;2.70;99.90;;;;;;5087154;28;20410;-40
2023/02/14 06:41:57;;;;;;;22.13;16.50;;;2.70;99.90;;;;;;5087181;28;20670;-41
2023/02/14 06:44:23;;;;;;;22.03;17.13;;;2.70;99.90;;;;;;5081708;28;20421;-40
2023/02/14 06:46:48;;;;;;;22.80;16.43;;;2.70;99.90;;;;;;5083844;28;20196;-41
2023/02/14 06:49:14;;;;;;;18.27;16.00;;;2.70;99.90;;;;;;5086866;28;20231;-41
2023/02/14 06:51:40;;;;;;;19.97;16.13;;;2.70;99.90;;;;;;5086420;28;20304;-40
2023/02/14 06:54:05;;;;;;;20.23;15.97;;;2.80;99.90;;;;;;5088116;28;20169;-40
2023/02/14 06:56:31;;;;;;;20.33;16.60;;;2.80;99.90;;;;;;5085674;28;20335;-42
2023/02/14 06:58:57;;;;;;;21.03;17.53;;;2.80;99.90;;;;;;5085885;28;20179;-40
2023/02/14 07:01:22;;;;;;;20.27;16.37;;;3.00;99.90;;;;;;5087555;28;20255;-42
2023/02/14 07:03:48;;;;;;;22.03;16.53;;;3.20;99.90;;;;;;5086787;28;20316;-41
2023/02/14 07:06:13;;;;;;;22.77;17.57;;;3.40;4.60;;;;;;5090574;28;20298;-40
2023/02/14 07:08:39;;;;;;;20.77;16.67;;;3.50;1.00;;;;;;5093391;28;20257;-41
2023/02/14 07:11:05;;;;;;;22.57;17.20;;;3.70;1.00;;;;;;5095736;28;20211;-40
2023/02/14 07:13:30;;;;;;;21.50;16.80;;;3.80;1.00;;;;;;5094341;28;20201;-40
2023/02/14 07:15:56;;;;;;;21.50;17.60;;;4.00;1.00;;;;;;5096065;28;20518;-40
2023/02/14 07:18:22;;;;;;;18.87;15.53;;;4.20;1.00;;;;;;5095791;28;20172;-41
2023/02/14 07:20:49;;;;;;;19.60;15.87;;;4.50;99.90;;;;;;5096130;28;20203;-41
2023/02/14 07:23:14;;;;;;;19.77;15.90;;;4.70;99.90;;;;;;5097857;28;20241;-40
2023/02/14 07:25:40;;;;;;;20.43;16.43;;;4.90;99.90;;;;;;5095682;28;20455;-40
2023/02/14 07:28:06;;;;;;;21.50;16.90;;;5.20;99.90;;;;;;5096596;28;20176;-40
2023/02/14 07:30:32;;;;;;;20.83;15.87;;;5.50;99.90;;;;;;5094751;28;20204;-41
2023/02/14 07:32:57;;;;;;;19.43;15.57;;;5.70;99.90;;;;;;5094793;28;20242;-40
2023/02/14 07:35:23;;;;;;;19.57;16.80;;;6.00;99.90;;;;;;5095966;28;20179;-40
2023/02/14 07:37:49;;;;;;;18.30;15.90;;;6.20;69.10;;;;;;5093614;28;20208;-41
2023/02/14 07:40:15;;;;;;;22.60;16.33;;;6.40;38.40;;;;;;5091998;28;20454;-40
2023/02/14 07:42:41;;;;;;;20.77;15.57;;;6.70;24.40;;;;;;5093389;28;20429;-40
2023/02/14 07:45:08;;;;;;;18.80;15.77;;;7.00;16.50;;;;;;5093842;28;20218;-40
2023/02/14 07:47:33;;;;;;;19.60;16.57;;;7.30;7.10;;;;;;5078180;28;20843;-41
2023/02/14 07:49:59;;;;;;;18.77;16.73;;;7.50;1.00;;;;;;5095491;28;20462;-42
2023/02/14 07:52:25;;;;;;;19.07;17.07;;;7.70;1.00;;;;;;5092768;28;20228;-42
2023/02/14 07:54:51;;;;;;;18.53;16.33;;;8.00;1.00;;;;;;5092239;28;20198;-41
2023/02/14 07:57:17;;;;;;;19.57;16.40;;;8.30;1.00;;;;;;5093049;28;20410;-42
2023/02/14 07:59:42;;;;;;;20.33;18.13;;;8.50;1.00;;;;;;5093079;28;20425;-41
2023/02/14 08:02:10;;;;;;;17.87;15.40;;;8.80;1.00;;;;;;5093237;28;20221;-41
2023/02/14 08:04:35;;;;;;;20.43;16.80;;;9.10;1.00;;;;;;5093184;28;20238;-41
2023/02/14 08:07:01;;;;;;;18.37;16.37;;;9.40;1.00;;;;;;5095551;28;20430;-41
2023/02/14 08:09:27;;;;;;;18.83;16.87;;;9.70;1.00;;;;;;5095465;28;20238;-42
2023/02/14 08:14:38;;;;;;;22.83;17.90;;;10.40;1.00;;;;;;5094444;28;20485;-42
2023/02/14 08:17:06;;;;;;;19.70;16.53;;;10.70;1.00;;;;;;5092866;28;20426;-42
2023/02/14 08:19:32;;;;;;;18.03;16.20;;;11.10;1.00;;;;;;5096110;28;20505;-42
2023/02/14 08:21:57;;;;;;;17.50;15.70;;;11.50;1.00;;;;;;5096233;28;20438;-42
2023/02/14 08:24:23;;;;;;;18.27;16.30;;;11.80;1.00;;;;;;5092183;28;20474;-41
2023/02/14 08:26:49;;;;;;;17.00;15.20;;;12.20;1.00;;;;;;5094050;28;20689;-42
2023/02/14 08:29:14;;;;;;;16.43;14.73;;;12.60;1.00;;;;;;5094449;28;20200;-42
2023/02/14 08:31:40;;;;;;;16.00;14.30;;;13.00;1.00;;;;;;5096592;28;20180;-42
2023/02/14 08:34:06;;;;;;;16.73;15.03;;;13.30;1.00;;;;;;5096362;28;20180;-42
2023/02/14 08:36:32;;;;;;;6.53;5.73;;;13.70;1.00;;;;;;5096973;28;20266;-39
2023/02/14 08:38:57;;;;;;;6.17;4.70;;;14.40;1.00;;;;;;5096571;28;20410;-39
2023/02/14 08:41:23;;;;;;;9.77;8.40;;;15.90;59.60;;;;;;5094931;28;20425;-38
2023/02/14 08:43:49;;;;;;;12.87;11.57;;;17.30;26.30;;;;;;5097585;28;20176;-38
2023/02/14 08:46:15;;;;;;;15.00;13.07;;;18.50;1.00;;;;;;5096354;28;20168;-38
2023/02/14 08:48:42;;;;;;;17.27;15.40;;;19.60;1.00;;;;;;5095528;28;20472;-38
2023/02/14 08:51:11;;;;;;;17.03;15.43;;;20.70;1.00;;;;;;5094287;28;20411;-37
2023/02/14 08:53:37;;;;;;;16.43;14.83;;;21.60;1.00;;;;;;5095098;28;20434;-38
2023/02/14 08:56:12;;;;;;;15.50;14.03;;;22.50;1.00;;;;;;5096555;28;20407;-37
2023/02/14 08:58:38;;;;;;;17.63;15.53;;;23.40;1.00;;;;;;5096062;28;20430;-38
2023/02/14 09:01:12;;;;;;;14.80;13.50;;;24.10;1.00;;;;;;5094937;28;20836;-38
2023/02/14 09:03:37;;;;;;;15.60;14.10;;;24.70;1.00;;;;;;5093063;28;20832;-39
2023/02/14 09:06:08;;;;;;;17.30;15.80;;;25.20;1.00;;;;;;5091390;28;20446;-41
2023/02/14 09:08:36;;;;;;;15.50;14.07;;;25.60;1.00;;;;;;5092533;28;20219;-39
2023/02/14 09:11:11;;;;;;;14.77;13.37;;;25.90;1.00;;;;;;5074558;28;20408;-39
2023/02/14 09:13:36;;;;;;;17.53;15.93;;;26.20;1.00;;;;;;5090714;28;20417;-39
2023/02/14 09:16:06;;;;;;;17.43;15.93;;;26.60;1.00;;;;;;5091114;28;20741;-38
2023/02/14 09:18:32;;;;;;;17.30;15.80;;;27.10;1.00;;;;;;5093573;28;20259;-38
2023/02/14 09:20:58;;;;;;;17.70;16.27;;;27.50;1.00;;;;;;5091865;28;20929;-38
2023/02/14 09:23:23;;;;;;;17.10;15.60;;;27.90;1.00;;;;;;5092306;28;20501;-37
2023/02/14 09:25:49;;;;;;;18.67;17.10;;;28.70;1.00;;;;;;5092478;28;20216;-38
2023/02/14 09:28:14;;;;;;;15.40;14.00;;;29.00;1.00;;;;;;5093234;28;20173;-38
2023/02/14 09:30:40;;;;;;;15.10;13.77;;;29.10;1.00;;;;;;5093509;28;20188;-40
2023/02/14 09:33:06;;;;;;;14.37;13.13;;;29.70;1.00;;;;;;5096257;28;20211;-38
2023/02/14 09:35:31;;;;;;;11.93;10.83;;;30.10;1.00;;;;;;5093861;28;20243;-39
2023/02/14 09:38:15;;;;;;;12.57;11.57;;;30.80;1.00;;;;;;5094543;28;20184;-38
2023/02/14 09:40:41;;;;;;;14.20;13.00;;;31.30;1.00;;;;;;5094771;28;20183;-39
2023/02/14 09:43:08;;;;;;;16.40;15.10;;;32.10;1.00;;;;;;5095264;28;20401;-38
2023/02/14 09:45:34;;;;;;;15.57;14.37;;;32.10;1.00;;;;;;5094782;28;20381;-38
2023/02/14 09:48:03;;;;;;;14.37;13.20;;;32.40;1.00;;;;;;5093752;28;20582;-39
2023/02/14 09:50:49;;;;;;;16.17;14.83;;;32.50;1.00;;;;;;5096051;28;20479;-39
2023/02/14 09:53:17;;;;;;;15.50;14.27;;;32.90;1.00;;;;;;5095660;28;20458;-39
2023/02/14 09:55:57;;;;;;;16.37;15.07;;;33.10;1.00;;;;;;5076621;28;20414;-39
2023/02/14 09:58:49;;;;;;;15.57;14.37;;;33.30;1.00;;;;;;5092809;28;20879;-39
2023/02/14 10:01:23;;;;;;;14.07;12.97;;;33.80;1.00;;;;;;5091048;28;20426;-38
2023/02/14 10:04:14;;;;;;;15.40;14.10;;;34.40;1.00;;;;;;5091575;28;20833;-38
2023/02/14 10:07:16;;;;;;;15.33;14.13;;;34.30;1.00;;;;;;5094123;28;20417;-39
2023/02/14 10:10:14;;;;;;;13.87;12.73;;;34.70;1.00;;;;;;5092776;28;20455;-38
2023/02/14 10:12:46;;;;;;;14.20;13.13;;;34.70;1.00;;;;;;5092711;28;20441;-38
2023/02/14 10:15:35;;;;;;;15.20;13.97;;;35.00;1.00;;;;;;5091997;28;20799;-40
2023/02/14 10:18:13;;;;;;;14.97;13.77;;;34.80;1.00;;;;;;5091020;28;20757;-39
2023/02/14 10:20:54;;;;;;;15.90;14.60;;;34.30;1.00;;;;;;5090950;28;20608;-38
2023/02/14 10:23:31;;;;;;;13.03;12.03;;;34.50;1.00;;;;;;5089596;28;20876;-39
2023/02/14 10:26:05;;;;;;;13.83;12.73;;;34.50;1.00;;;;;;5090297;28;20781;-41
2023/02/14 10:28:39;;;;;;;13.83;12.73;;;34.80;1.00;;;;;;5087827;28;20425;-40
2023/02/14 10:31:42;;;;;;;12.53;11.63;;;34.70;1.00;;;;;;5089324;28;20385;-39
2023/02/14 10:34:15;;;;;;;13.10;12.10;;;34.60;1.00;;;;;;5093705;28;20516;-39
2023/02/14 10:36:47;;;;;;;14.30;13.10;;;34.50;1.00;;;;;;5106834;28;20429;-38
2023/02/14 10:39:46;;;;;;;13.13;12.03;;;34.50;1.00;;;;;;5096617;28;20405;-39
2023/02/14 10:42:28;;;;;;;11.43;10.57;;;34.60;1.00;;;;;;5087056;28;20502;-38
2023/02/14 10:45:16;;;;;;;13.10;12.00;;;34.80;1.00;;;;;;5091897;28;20406;-40
2023/02/14 10:48:07;;;;;;;12.40;11.50;;;35.10;1.00;;;;;;5093714;28;20418;-38
2023/02/14 10:50:52;;;;;;;13.67;12.67;;;35.40;1.00;;;;;;5072082;28;20799;-39
2023/02/14 10:53:32;;;;;;;10.23;9.50;;;35.70;1.00;;;;;;5089894;28;20416;-42
2023/02/14 10:56:11;;;;;;;11.47;10.37;;;36.10;1.00;;;;;;5090072;28;20414;-41
2023/02/14 10:58:39;;;;;;;10.80;9.83;;;36.50;1.00;;;;;;5091640;28;20405;-41
2023/02/14 11:01:08;;;;;;;12.90;11.87;;;36.80;1.00;;;;;;5090449;28;20506;-41
2023/02/14 11:03:36;;;;;;;11.37;10.30;;;;;;;;;;5090352;28;20448;-40
2023/02/14 11:06:02;;;;;;;10.70;9.83;;;37.30;1.00;;;;;;5091545;28;20866;-42
2023/02/14 11:08:33;;;;;;;10.90;10.00;;;37.90;1.00;;;;;;5089872;28;20507;-41
2023/02/14 11:11:13;;;;;;;11.23;10.20;;;38.50;1.00;;;;;;5090544;28;20176;-40
2023/02/14 11:13:39;;;;;;;10.00;9.17;;;39.10;1.00;;;;;;5090546;28;20827;-42
2023/02/14 11:16:08;;;;;;;12.53;10.23;;;39.50;1.00;;;;;;5091784;28;20471;-40
2023/02/14 11:18:34;;;;;;;9.20;8.40;;;39.80;1.00;;;;;;5090887;28;20528;-42
2023/02/14 11:21:08;;;;;;;11.33;10.33;;;40.50;1.00;;;;;;5089560;28;20882;-41
2023/02/14 11:23:35;;;;;;;9.17;8.47;;;41.00;1.00;;;;;;5071765;28;20430;-41
2023/02/14 11:26:03;;;;;;;10.43;9.33;;;41.60;1.00;;;;;;5089213;28;20532;-41
2023/02/14 11:28:28;;;;;;;10.73;9.93;;;41.80;1.00;;;;;;5088089;28;20425;-42
2023/02/14 11:30:54;;;;;;;11.50;10.70;;;42.30;1.00;;;;;;5090030;28;20436;-40
2023/02/14 11:33:28;;;;;;;10.30;9.33;;;41.90;1.00;;;;;;5090484;28;20679;-40
2023/02/14 11:35:54;;;;;;;10.57;9.77;;;41.80;1.00;;;;;;5092328;28;20426;-42
2023/02/14 11:38:40;;;;;;;10.27;9.57;;;42.10;1.00;;;;;;5089311;28;20831;-41
2023/02/14 11:41:09;;;;;;;10.90;10.10;;;42.10;1.00;;;;;;5089369;28;20435;-41
2023/02/14 11:43:37;;;;;;;7.50;6.97;;;42.30;1.00;;;;;;5088927;28;20433;-41
2023/02/14 11:46:14;;;;;;;8.47;7.67;;;42.50;1.00;;;;;;5088642;28;20419;-42
2023/02/14 11:48:57;;;;;;;7.00;6.33;;;42.70;1.00;;;;;;5089658;28;20699;-41
2023/02/14 11:51:41;;;;;;;7.43;6.90;;;42.70;1.00;;;;;;5090321;28;20485;-41
2023/02/14 11:54:13;;;;;;;6.60;6.20;;;43.20;1.00;;;;;;5090655;28;20723;-42
2023/02/14 11:56:43;;;;;;;8.73;7.97;;;43.50;1.00;;;;;;5094754;28;20710;-43
2023/02/14 11:59:11;;;;;;;7.40;6.90;;;43.70;1.00;;;;;;5093755;28;20462;-43
2023/02/14 12:01:37;;;;;;;7.60;7.10;;;43.50;1.00;;;;;;5092543;28;20441;-42
2023/02/14 12:04:06;;;;;;;7.43;6.87;;;43.70;1.00;;;;;;5093144;28;20698;-43
2023/02/14 12:06:34;;;;;;;7.97;7.27;;;43.70;1.00;;;;;;5094246;28;20410;-44
2023/02/14 12:09:21;;;;;;;7.77;7.07;;;43.80;1.00;;;;;;5094149;28;20406;-42
2023/02/14 12:12:01;;;;;;;6.87;6.37;;;44.00;1.00;;;;;;5092141;28;20415;-44
2023/02/14 12:14:30;;;;;;;8.17;6.77;;;44.00;1.00;;;;;;5090025;28;20533;-43
2023/02/14 12:17:04;;;;;;;8.73;7.67;;;44.00;1.00;;;;;;5088849;28;20801;-41
2023/02/14 12:19:48;;;;;;;9.33;8.00;;;44.20;1.00;;;;;;5089586;28;20520;-41
2023/02/14 12:22:43;;;;;;;8.87;8.17;;;44.20;1.00;;;;;;5090033;28;20508;-44
2023/02/14 12:25:20;;;;;;;9.57;6.90;;;44.10;1.00;;;;;;5080970;28;20943;-43
2023/02/14 12:28:02;;;;;;;9.03;8.33;;;44.20;1.00;;;;;;5092387;28;20687;-44
2023/02/14 12:30:31;;;;;;;8.13;7.03;;;44.20;1.00;;;;;;5090381;28;20402;-43
2023/02/14 12:32:57;;;;;;;7.40;6.80;;;44.20;1.00;;;;;;5091157;28;20841;-41
2023/02/14 12:35:53;;;;;;;8.20;7.50;;;44.50;1.00;;;;;;5092155;28;20407;-43
2023/02/14 12:38:58;;;;;;;7.70;7.10;;;44.40;1.00;;;;;;5092721;28;20250;-43
2023/02/14 12:42:02;;;;;;;7.30;6.70;;;44.20;1.00;;;;;;5078736;28;20505;-42
2023/02/14 12:44:58;;;;;;;7.33;6.67;;;44.50;1.00;;;;;;5068208;28;20414;-46
2023/02/14 12:47:42;;;;;;;8.23;7.53;;;44.50;1.00;;;;;;5090624;28;20489;-44
2023/02/14 12:50:32;;;;;;;7.80;7.10;;;44.80;1.00;;;;;;5092357;28;20415;-43
2023/02/14 12:53:29;;;;;;;7.30;6.70;;;45.20;1.00;;;;;;5091313;28;20461;-44
2023/02/14 12:56:13;;;;;;;6.93;6.53;;;45.00;1.00;;;;;;5093890;28;20672;-40
2023/02/14 12:58:44;;;;;;;7.63;6.63;;;45.20;1.00;;;;;;5090932;28;20696;-39
2023/02/14 13:01:16;;;;;;;7.00;6.40;;;45.20;1.00;;;;;;5092252;28;20403;-43
2023/02/14 13:04:06;;;;;;;6.07;5.67;;;45.40;1.00;;;;;;5088241;28;20421;-40
2023/02/14 13:06:38;;;;;;;6.80;6.23;;;45.60;1.00;;;;;;5088624;28;20420;-42
2023/02/14 13:09:32;;;;;;;7.50;6.80;;;45.60;1.00;;;;;;5090642;28;20425;-41
2023/02/14 13:12:04;;;;;;;6.03;5.63;;;45.50;1.00;;;;;;5089463;28;20422;-41
2023/02/14 13:14:52;;;;;;;6.90;6.50;;;45.50;1.00;;;;;;5087675;28;20524;-40
2023/02/14 13:17:23;;;;;;;6.17;5.57;;;45.60;1.00;;;;;;5089977;28;20707;-43